Flight Track Log - Related Links

Times and Time Zones

All times are in EDT time to prevent confusion due to time zone crossing. See the CPT8773 flight status page for this flight to view local times or setup timezone preferences in your user account.

Time Position Orientation Groundspeed Altitude Reporting Facility
EDT Latitude Longitude Course Direction KTS MPH feet Rate Location/Type
Fri 09:00:02 AM 42.9514 -106.5336 45° Northeast 124 143 7,200  Level Salt Lake Center
Fri 09:01:04 AM 42.9822 -106.5469 342° North 123 142 7,800 585 Climbing Denver Center
Fri 09:02:05 AM 43.0150 -106.5511 355° North 121 139 8,400 590 Climbing Denver Center
Fri 09:03:06 AM 43.0528 -106.5600 350° North 123 142 9,000 541 Climbing Denver Center
Fri 09:04:00 AM 42.9189 -106.4493 45° Northeast  Level FlightAware Approximate
Fri 09:04:07 AM 43.0844 -106.5667 351° North 122 140 9,500  Level Denver Center
Fri 09:05:00 AM 42.9462 -106.4116 45° Northeast  Level FlightAware Approximate
Fri 09:05:08 AM 43.1167 -106.5733 351° North 121 139 9,900  Level Denver Center
Fri 09:06:09 AM 43.1533 -106.5800 352° North 121 139 10,500 545 Climbing Denver Center
Fri 09:07:09 AM 43.1825 -106.5889 347° North 117 135 11,000 496 Climbing Denver Center
Fri 09:08:10 AM 43.2136 -106.5967 350° North 118 136 11,500 443 Climbing Denver Center
Fri 09:09:11 AM 43.2525 -106.6050 351° North 125 144 11,900 295 Climbing Denver Center
Fri 09:10:12 AM 43.2886 -106.6136 350° North 134 154 12,100 49 Climbing Denver Center
Fri 09:11:13 AM 43.3125 -106.6550 308° West 159 183 12,000 -49 Descending Denver Center
Fri 09:12:14 AM 43.3222 -106.7153 283° West 147 169 12,000  Level Denver Center
Fri 09:13:15 AM 43.3447 -106.7611 304° West 149 171 12,000  Level Denver Center
Fri 09:14:15 AM 43.3733 -106.8086 310° West 145 167 12,000  Level Denver Center
Fri 09:15:28 AM 43.4003 -106.8611 305° West 150 173 12,000  Level Denver Center
Fri 09:16:29 AM 43.4247 -106.9056 307° West 145 167 12,000  Level Denver Center
Fri 09:17:30 AM 43.4469 -106.9506 304° West 148 170 12,000  Level Denver Center
Fri 09:18:31 AM 43.4736 -107.0003 306° West 145 167 12,000  Level Denver Center
Fri 09:19:32 AM 43.4972 -107.0453 306° West 150 173 12,000  Level Denver Center
Fri 09:20:33 AM 43.5211 -107.0900 306° West 151 174 12,000  Level Denver Center
Fri 09:21:19 AM 43.5378 -107.1281 301° West 147 169 12,000  Level Salt Lake Center
Fri 09:22:20 AM 43.5642 -107.1769 307° West 143 165 12,000  Level Salt Lake Center
Fri 09:23:21 AM 43.5864 -107.2194 306° West 143 165 12,000  Level Salt Lake Center
Fri 09:24:22 AM 43.6114 -107.2600 310° West 144 166 12,000  Level Salt Lake Center
Fri 09:25:23 AM 43.6361 -107.3103 304° West 142 163 12,000  Level Salt Lake Center
Fri 09:26:24 AM 43.6586 -107.3519 307° West 142 163 12,000  Level Salt Lake Center
Fri 09:27:25 AM 43.6808 -107.3933 307° West 141 162 12,000  Level Salt Lake Center
Fri 09:28:26 AM 43.7067 -107.4433 306° West 141 162 12,000  Level Salt Lake Center
Fri 09:29:27 AM 43.7292 -107.4844 307° West 141 162 12,000  Level Salt Lake Center
Fri 09:30:28 AM 43.7511 -107.5267 306° West 141 162 12,000  Level Salt Lake Center
Fri 09:31:29 AM 43.7761 -107.5756 305° West 140 161 12,000  Level Salt Lake Center
Fri 09:32:30 AM 43.7983 -107.6172 306° West 140 161 12,000  Level Salt Lake Center
Fri 09:33:31 AM 43.8256 -107.6675 307° West 143 165 12,000  Level Salt Lake Center
Fri 09:34:32 AM 43.8483 -107.7111 306° West 145 167 12,000  Level Salt Lake Center
Fri 09:35:33 AM 43.8711 -107.7547 306° West 145 167 12,000  Level Salt Lake Center
Fri 09:36:34 AM 43.8983 -107.8056 307° West 146 168 12,000  Level Salt Lake Center
Fri 09:37:36 AM 43.9203 -107.8503 304° West 147 169 12,000  Level Salt Lake Center
Fri 09:38:37 AM 43.9433 -107.8928 307° West 146 168 12,000  Level Salt Lake Center
Fri 09:39:38 AM 43.9692 -107.9444 305° West 145 167 12,000  Level Salt Lake Center
Fri 09:40:39 AM 43.9919 -107.9867 307° West 144 166 12,000  Level Salt Lake Center
Fri 09:41:40 AM 44.0139 -108.0297 305° West 143 165 12,000  Level Salt Lake Center
Fri 09:42:41 AM 44.0403 -108.0792 307° West 143 165 12,000  Level Salt Lake Center
Fri 09:43:43 AM 44.0619 -108.1219 305° West 142 163 12,000  Level Salt Lake Center
Fri 09:44:44 AM 44.0881 -108.1714 306° West 142 163 12,000  Level Salt Lake Center
Fri 09:45:45 AM 44.1100 -108.2136 306° West 141 162 12,000  Level Salt Lake Center
Fri 09:46:46 AM 44.1311 -108.2561 305° West 140 161 12,000  Level Salt Lake Center
Fri 09:47:47 AM 44.1569 -108.3069 305° West 142 163 12,000  Level Salt Lake Center
Fri 09:48:49 AM 44.1789 -108.3494 306° West 141 162 12,000  Level Salt Lake Center
Fri 09:49:50 AM 44.2008 -108.3917 306° West 141 162 12,000  Level Salt Lake Center
Fri 09:50:51 AM 44.2253 -108.4400 305° West 139 160 12,000  Level Salt Lake Center
Fri 09:51:52 AM 44.2458 -108.4831 304° West 138 159 12,000  Level Salt Lake Center
Fri 09:52:54 AM 44.2678 -108.5253 306° West 139 160 12,000  Level Salt Lake Center
Fri 09:53:55 AM 44.2939 -108.5764 306° West 141 162 12,000 -197 Level Salt Lake Center
Fri 09:54:56 AM 44.3178 -108.6219 306° West 145 167 11,600 -443 Descending Salt Lake Center
Fri 09:55:57 AM 44.3469 -108.6808 305° West 155 178 11,100 -439 Descending Salt Lake Center
Fri 09:56:59 AM 44.3728 -108.7328 305° West 163 188 10,700 -387 Descending Salt Lake Center

Login

Don't have an account? Register now (free) for customized features, flight alerts, and more!